Time;durP1;ratioP1;P1;durP2;ratioP2;P2;SDS_P1;SDS_P2;PMS_P1;PMS_P2;Temp;Humidity;BMP_temperature;BMP_pressure;BME280_temperature;BME280_humidity;BME280_pressure;Samples;Min_cycle;Max_cycle;Signal;HPM_P1;HPM_P2
2023/09/12 00:02:25;;;;;;;30.50;27.33;;;;;;;18.87;96.02;100601.69;4997605;28;20420;-82
2023/09/12 00:04:54;;;;;;;33.20;29.57;;;;;;;18.86;96.24;100601.94;4987072;28;20438;-82
2023/09/12 00:07:23;;;;;;;32.93;29.83;;;;;;;18.86;95.99;100596.47;4996205;28;20472;-82
2023/09/12 00:09:52;;;;;;;33.97;30.67;;;;;;;18.87;96.13;100604.44;4985394;28;20514;-82
2023/09/12 00:12:25;;;;;;;33.47;29.87;;;;;;;18.84;96.41;100602.22;5012694;28;20431;-82
2023/09/12 00:14:55;;;;;;;33.03;29.53;;;;;;;18.82;96.34;100609.06;4992329;28;20490;-82
2023/09/12 00:17:26;;;;;;;31.53;27.50;;;;;;;18.81;96.47;100604.66;5001384;28;20499;-83
2023/09/12 00:19:56;;;;;;;34.47;31.10;;;;;;;18.79;96.21;100606.81;4998114;28;20454;-82
2023/09/12 00:22:25;;;;;;;33.53;29.77;;;;;;;18.75;96.48;100605.69;5006708;28;20444;-82
2023/09/12 00:24:54;;;;;;;30.53;27.53;;;;;;;18.70;96.49;100603.75;5002086;28;20412;-82
2023/09/12 00:27:25;;;;;;;33.50;30.23;;;;;;;18.66;96.62;100602.63;4999092;28;20477;-82
2023/09/12 00:29:54;;;;;;;33.50;29.90;;;;;;;18.64;96.62;100597.41;4990774;28;20401;-82
2023/09/12 00:32:23;;;;;;;31.80;28.70;;;;;;;18.64;96.79;100602.88;4998979;28;20407;-81
2023/09/12 00:34:53;;;;;;;31.67;28.73;;;;;;;18.63;96.52;100606.72;4997415;28;20977;-82
2023/09/12 00:37:22;;;;;;;34.90;31.20;;;;;;;18.62;96.19;100607.00;4997413;28;20468;-81
2023/09/12 00:39:51;;;;;;;33.33;30.03;;;;;;;18.59;95.96;100602.84;5001330;28;20449;-81
2023/09/12 00:42:21;;;;;;;32.47;28.27;;;;;;;18.58;96.10;100612.19;5004308;28;20438;-82
2023/09/12 00:44:51;;;;;;;31.47;28.27;;;;;;;18.59;95.91;100604.75;5005505;28;20504;-82
2023/09/12 00:47:22;;;;;;;31.83;28.60;;;;;;;18.59;96.15;100602.84;5007477;28;20452;-81
2023/09/12 00:49:52;;;;;;;32.67;29.47;;;;;;;18.57;96.34;100610.50;5006453;28;20413;-81
2023/09/12 00:52:26;;;;;;;35.00;29.97;;;;;;;18.53;96.47;100606.66;5010871;28;20869;-82
2023/09/12 00:54:56;;;;;;;31.10;27.40;;;;;;;18.58;96.39;100605.88;5012790;28;20407;-82
2023/09/12 00:57:26;;;;;;;31.00;27.57;;;;;;;18.67;97.43;100610.59;5006733;28;20452;-82
2023/09/12 00:59:57;;;;;;;31.83;28.70;;;;;;;18.60;97.32;100599.00;5017024;28;20411;-82
2023/09/12 01:02:27;;;;;;;32.50;29.00;;;;;;;18.53;97.75;100601.16;4999669;28;20444;-83
2023/09/12 01:04:57;;;;;;;33.83;30.13;;;;;;;18.54;98.44;100599.25;5000432;28;20496;-82
2023/09/12 01:07:26;;;;;;;29.93;26.97;;;;;;;18.49;98.71;100602.72;5002387;28;20443;-83
2023/09/12 01:09:55;;;;;;;33.10;29.47;;;;;;;18.44;99.08;100599.97;4998642;28;20896;-83
2023/09/12 01:12:24;;;;;;;31.73;28.20;;;;;;;18.40;99.50;100604.28;4998882;28;20462;-83
2023/09/12 01:14:54;;;;;;;31.13;27.93;;;;;;;18.39;99.59;100602.66;4998973;28;20426;-82
2023/09/12 01:17:25;;;;;;;30.13;27.10;;;;;;;18.44;99.04;100593.66;5001079;28;20939;-82
2023/09/12 01:19:55;;;;;;;30.47;27.37;;;;;;;18.38;99.08;100597.44;5007116;28;21042;-83
2023/09/12 01:22:41;;;;;;;28.83;25.70;;;;;;;18.32;99.65;100595.72;5000543;28;20423;-82
2023/09/12 01:25:34;;;;;;;29.33;26.57;;;;;;;18.32;99.48;100599.31;4992603;28;20465;-83
2023/09/12 01:28:09;;;;;;;31.40;27.07;;;;;;;18.36;99.54;100602.34;4975861;28;20472;-82
2023/09/12 01:30:43;;;;;;;31.10;27.77;;;;;;;18.33;99.48;100598.22;5013013;28;20396;-82
2023/09/12 01:33:13;;;;;;;28.37;25.47;;;;;;;18.31;99.51;100600.38;5042259;28;20433;-82
2023/09/12 01:35:43;;;;;;;31.50;28.40;;;;;;;18.32;99.81;100602.03;4997553;28;20804;-82
2023/09/12 01:38:12;;;;;;;31.87;28.60;;;;;;;18.29;99.74;100597.09;4991304;28;20509;-83
2023/09/12 01:40:48;;;;;;;30.90;26.07;;;;;;;18.26;99.75;100594.84;4994555;28;20803;-82
2023/09/12 01:43:20;;;;;;;31.27;28.27;;;;;;;18.22;99.71;100596.47;4989980;28;20408;-82
2023/09/12 01:45:54;;;;;;;31.47;28.17;;;;;;;18.22;99.86;100602.78;4994175;28;20413;-82
2023/09/12 01:48:33;;;;;;;32.37;29.07;;;;;;;18.19;100.00;100597.00;4998392;28;20742;-83
2023/09/12 01:51:03;;;;;;;30.97;27.97;;;;;;;18.33;99.98;100595.47;4990392;28;20401;-83
2023/09/12 01:53:34;;;;;;;31.37;28.07;;;;;;;18.27;99.69;100599.25;4999914;28;20585;-83
2023/09/12 02:12:38;;;;;;;29.50;26.33;;;;;;;18.22;100.00;100596.47;4990244;28;20526;-83
2023/09/12 02:15:09;;;;;;;29.23;26.40;;;;;;;18.14;100.00;100586.00;4981784;28;20455;-83
2023/09/12 02:17:38;;;;;;;29.63;26.63;;;;;;;18.07;100.00;100583.44;4995219;28;20551;-83
2023/09/12 02:20:10;;;;;;;33.43;29.73;;;;;;;18.03;100.00;100576.00;4992432;28;20445;-83
2023/09/12 02:22:39;;;;;;;31.67;28.63;;;;;;;17.96;100.00;100578.16;4997544;28;20429;-83
2023/09/12 02:25:10;;;;;;;30.87;27.63;;;;;;;17.96;100.00;100578.94;4992828;28;20436;-83
2023/09/12 02:27:42;;;;;;;30.57;26.27;;;;;;;17.98;100.00;100590.47;4995996;28;21429;-83
2023/09/12 02:30:11;;;;;;;26.53;24.10;;;;;;;17.89;100.00;100577.50;4987465;28;20976;-84
2023/09/12 02:32:43;;;;;;;29.17;26.30;;;;;;;17.90;100.00;100577.28;4995208;28;20828;-83
2023/09/12 02:35:12;;;;;;;28.93;25.30;;;;;;;17.98;100.00;100578.69;4992970;28;20429;-83
2023/09/12 02:37:42;;;;;;;27.83;25.17;;;;;;;17.99;100.00;100583.09;4998018;28;20952;-84
2023/09/12 02:40:14;;;;;;;29.07;25.10;;;;;;;17.98;100.00;100579.53;4993510;28;20428;-83
2023/09/12 02:42:45;;;;;;;27.77;24.87;;;;;;;17.91;100.00;100572.63;4998305;28;20918;-83
2023/09/12 02:45:14;;;;;;;26.13;23.73;;;;;;;17.86;100.00;100575.31;4998719;28;20483;-83
2023/09/12 02:47:46;;;;;;;27.37;24.87;;;;;;;17.81;100.00;100573.34;5008586;28;20488;-84
2023/09/12 02:50:15;;;;;;;32.70;24.67;;;;;;;17.76;100.00;100565.91;5000794;28;20914;-83
2023/09/12 02:52:44;;;;;;;27.97;24.87;;;;;;;17.75;100.00;100572.44;4991769;28;20395;-84
2023/09/12 02:55:14;;;;;;;27.80;24.90;;;;;;;17.71;100.00;100570.50;4986422;28;20446;-84
2023/09/12 02:57:46;;;;;;;28.23;23.67;;;;;;;17.69;100.00;100569.91;4990704;28;21016;-84
2023/09/12 03:00:16;;;;;;;28.07;25.27;;;;;;;17.66;100.00;100562.22;4994378;28;20416;-84
2023/09/12 03:02:45;;;;;;;28.47;24.60;;;;;;;17.65;100.00;100566.03;4996141;28;20914;-84
2023/09/12 03:05:15;;;;;;;27.23;24.53;;;;;;;17.64;100.00;100562.47;4991164;28;20429;-82
2023/09/12 03:07:44;;;;;;;27.10;24.40;;;;;;;17.65;100.00;100558.66;4994588;28;20462;-83
2023/09/12 03:10:13;;;;;;;26.10;23.50;;;;;;;17.80;100.00;100572.50;4993291;28;20400;-83
2023/09/12 03:12:44;;;;;;;29.33;25.83;;;;;;;17.91;100.00;100565.22;4991802;28;20858;-83
2023/09/12 03:15:13;;;;;;;26.67;23.90;;;;;;;17.91;100.00;100567.94;4992271;28;20449;-83
2023/09/12 03:17:43;;;;;;;25.33;22.90;;;;;;;17.76;100.00;100559.59;4989786;28;20559;-83
2023/09/12 03:20:13;;;;;;;26.43;23.70;;;;;;;17.75;100.00;100564.25;5005315;28;20407;-83
2023/09/12 03:22:42;;;;;;;26.87;24.27;;;;;;;17.77;100.00;100561.22;4993661;28;20455;-83
2023/09/12 03:25:12;;;;;;;27.23;24.60;;;;;;;17.74;100.00;100562.59;4994686;28;20450;-83
2023/09/12 03:27:41;;;;;;;24.57;22.17;;;;;;;17.69;100.00;100558.97;4993383;28;20449;-83
2023/09/12 03:30:13;;;;;;;27.33;23.03;;;;;;;17.75;100.00;100564.25;4995146;28;20979;-83
2023/09/12 03:32:42;;;;;;;26.23;23.30;;;;;;;17.77;100.00;100555.75;4995814;28;20476;-83
2023/09/12 03:35:11;;;;;;;27.40;24.53;;;;;;;17.74;100.00;100565.31;4991468;28;20446;-82
2023/09/12 03:37:42;;;;;;;27.57;24.60;;;;;;;17.70;100.00;100566.94;4989564;28;20532;-83
2023/09/12 03:40:15;;;;;;;29.07;23.93;;;;;;;17.64;100.00;100561.63;4998776;28;20985;-83
2023/09/12 03:42:44;;;;;;;27.63;23.47;;;;;;;17.67;100.00;100570.16;4990437;28;20479;-84
2023/09/12 03:45:15;;;;;;;25.23;22.90;;;;;;;17.65;100.00;100571.50;4998070;28;20413;-84
2023/09/12 03:47:46;;;;;;;25.77;23.00;;;;;;;17.65;100.00;100569.59;4997912;28;20431;-83
2023/09/12 03:50:19;;;;;;;30.80;24.60;;;;;;;17.54;100.00;100567.78;4996852;28;20606;-84
2023/09/12 03:52:49;;;;;;;29.53;23.77;;;;;;;17.67;100.00;100572.88;4996106;28;20417;-83
2023/09/12 03:55:19;;;;;;;29.50;26.30;;;;;;;17.65;100.00;100571.50;4986221;28;20417;-84
2023/09/12 03:57:49;;;;;;;26.87;24.10;;;;;;;17.50;100.00;100580.34;4995373;28;20815;-83
2023/09/12 04:00:20;;;;;;;27.83;24.87;;;;;;;17.41;100.00;100581.88;4995775;28;20478;-83
2023/09/12 04:02:51;;;;;;;26.63;23.87;;;;;;;17.35;100.00;100580.13;5003663;28;20462;-82
2023/09/12 04:05:20;;;;;;;27.20;24.50;;;;;;;17.38;100.00;100580.44;4997254;28;20894;-83
2023/09/12 04:07:50;;;;;;;29.20;24.63;;;;;;;17.39;100.00;100581.28;5007692;28;21039;-83
2023/09/12 04:10:21;;;;;;;27.20;24.77;;;;;;;17.42;100.00;100579.97;4992253;28;20412;-84
2023/09/12 04:12:50;;;;;;;27.90;25.00;;;;;;;17.37;100.00;100576.09;5015868;28;20419;-84
2023/09/12 04:15:21;;;;;;;30.00;27.00;;;;;;;17.36;100.00;100573.59;4989220;28;20440;-83
2023/09/12 04:17:51;;;;;;;29.20;26.20;;;;;;;17.43;100.00;100576.94;4991069;28;20482;-83
2023/09/12 04:20:23;;;;;;;31.10;28.03;;;;;;;17.48;100.00;100579.75;4996299;28;20941;-83
2023/09/12 04:22:55;;;;;;;28.93;26.13;;;;;;;17.51;100.00;100578.44;4989835;28;20412;-86
2023/09/12 04:25:24;;;;;;;34.87;26.50;;;;;;;17.54;100.00;100575.16;4995041;28;20468;-84
2023/09/12 04:27:53;;;;;;;28.60;25.77;;;;;;;17.55;100.00;100579.56;4992493;28;20474;-83
2023/09/12 04:30:24;;;;;;;29.17;25.10;;;;;;;17.57;100.00;100574.69;4991816;28;20516;-84
2023/09/12 04:32:54;;;;;;;29.83;26.83;;;;;;;17.57;100.00;100574.69;5009130;28;20412;-83
2023/09/12 04:35:25;;;;;;;30.60;27.60;;;;;;;17.54;100.00;100584.22;4988524;28;20416;-84
2023/09/12 04:37:54;;;;;;;28.27;25.40;;;;;;;17.51;100.00;100584.72;5000723;28;20442;-84
2023/09/12 04:40:23;;;;;;;33.90;29.27;;;;;;;17.51;100.00;100578.44;4993364;28;20426;-83
2023/09/12 04:42:53;;;;;;;31.70;26.97;;;;;;;17.57;100.00;100583.69;5004878;28;20421;-85
2023/09/12 04:45:24;;;;;;;34.40;28.23;;;;;;;17.59;100.00;100587.03;5006662;28;20431;-84
2023/09/12 04:47:53;;;;;;;29.70;23.90;;;;;;;17.66;100.00;100586.84;4988871;28;20468;-84
2023/09/12 04:50:25;;;;;;;27.97;25.07;;;;;;;17.66;100.00;100579.47;4996262;28;20422;-83
2023/09/12 04:52:55;;;;;;;28.80;25.37;;;;;;;17.90;100.00;100585.47;4996086;28;20442;-83
2023/09/12 04:55:24;;;;;;;28.70;24.83;;;;;;;18.02;100.00;100588.03;5006535;28;20420;-83
2023/09/12 04:57:54;;;;;;;27.97;23.80;;;;;;;18.02;99.86;100588.03;4998796;28;20448;-84
2023/09/12 05:00:25;;;;;;;30.33;27.27;;;;;;;18.05;99.67;100591.13;5005791;28;20490;-84
2023/09/12 05:02:54;;;;;;;28.63;25.83;;;;;;;18.13;99.30;100595.28;5017470;28;21272;-84
2023/09/12 05:05:24;;;;;;;27.90;25.03;;;;;;;18.25;98.95;100591.28;5006979;28;20524;-83
2023/09/12 05:07:54;;;;;;;37.50;27.40;;;;;;;18.43;97.36;100592.81;4997845;28;20442;-83
2023/09/12 05:10:24;;;;;;;35.67;27.10;;;;;;;18.60;96.32;100593.53;4999763;28;20929;-84
2023/09/12 05:12:53;;;;;;;32.80;26.50;;;;;;;18.77;94.90;100598.06;4997915;28;20434;-83
2023/09/12 05:15:23;;;;;;;28.90;26.00;;;;;;;18.91;93.85;100599.25;5006420;28;20416;-83
2023/09/12 05:17:53;;;;;;;31.50;26.80;;;;;;;19.02;92.76;100598.22;5011645;28;20452;-84
2023/09/12 05:20:24;;;;;;;28.80;26.10;;;;;;;19.13;92.14;100601.84;5012188;28;20490;-83
2023/09/12 05:22:54;;;;;;;32.63;28.83;;;;;;;19.24;91.04;100600.81;5011612;28;20520;-83
2023/09/12 05:25:23;;;;;;;31.73;28.30;;;;;;;19.42;90.20;100603.91;5010599;28;20475;-84
2023/09/12 05:27:53;;;;;;;32.43;26.30;;;;;;;19.52;89.20;100598.50;5001203;28;20432;-82
2023/09/12 05:30:25;;;;;;;31.70;28.23;;;;;;;19.68;88.65;100604.88;5008536;28;20425;-84
2023/09/12 05:32:54;;;;;;;30.60;27.67;;;;;;;19.81;87.82;100600.78;5020407;28;20461;-83
2023/09/12 05:35:24;;;;;;;31.77;27.43;;;;;;;19.95;86.60;100610.16;5009081;28;20419;-84
2023/09/12 05:37:54;;;;;;;38.70;29.83;;;;;;;20.12;84.99;100616.28;4997647;28;20497;-84
2023/09/12 05:40:23;;;;;;;30.37;25.10;;;;;;;20.31;81.67;100609.19;4998214;28;20434;-83
2023/09/12 05:42:53;;;;;;;28.40;25.30;;;;;;;20.46;79.57;100608.38;5003582;28;20426;-84
2023/09/12 05:45:24;;;;;;;26.57;23.40;;;;;;;20.52;77.92;100615.53;5003758;28;20469;-84
2023/09/12 05:47:54;;;;;;;25.77;23.23;;;;;;;20.55;76.54;100614.97;4999672;28;20508;-83
2023/09/12 05:50:23;;;;;;;23.23;20.10;;;;;;;20.59;75.71;100616.06;5004510;28;20408;-83
2023/09/12 05:52:53;;;;;;;24.23;21.73;;;;;;;20.63;75.39;100616.31;5002571;28;20781;-84
2023/09/12 05:55:22;;;;;;;23.40;21.00;;;;;;;20.68;74.64;100619.06;4997094;28;20425;-84
2023/09/12 05:57:52;;;;;;;31.60;22.33;;;;;;;20.78;74.59;100619.06;5001849;28;21018;-84
2023/09/12 06:00:25;;;;;;;22.50;20.33;;;;;;;20.95;73.19;100619.63;5001634;28;20456;-83
2023/09/12 06:02:54;;;;;;;25.20;21.00;;;;;;;21.11;72.24;100617.66;4993105;28;20469;-83
2023/09/12 06:05:24;;;;;;;22.50;19.30;;;;;;;21.32;70.19;100619.28;5002005;28;20916;-84
2023/09/12 06:07:56;;;;;;;23.30;19.10;;;;;;;21.67;68.58;100637.63;5008747;28;20466;-83
2023/09/12 06:10:25;;;;;;;28.10;20.17;;;;;;;21.85;68.09;100636.16;5003381;28;20751;-83
2023/09/12 06:12:55;;;;;;;27.07;22.10;;;;;;;22.04;67.42;100632.50;4999735;28;20549;-83
2023/09/12 06:15:26;;;;;;;26.13;18.60;;;;;;;22.26;66.83;100640.38;4997360;28;20499;-83
2023/09/12 06:17:55;;;;;;;21.80;19.67;;;;;;;22.55;64.56;100637.69;5001230;28;20466;-82
2023/09/12 06:20:25;;;;;;;23.30;18.80;;;;;;;22.68;64.35;100637.00;5011763;28;20420;-84
2023/09/12 06:22:54;;;;;;;26.53;19.43;;;;;;;22.84;66.25;100621.19;5011706;28;20406;-83
2023/09/12 06:25:24;;;;;;;22.70;20.43;;;;;;;23.04;65.51;100629.28;5012688;28;20443;-83
2023/09/12 06:27:54;;;;;;;24.73;17.90;;;;;;;23.31;61.29;100636.97;5018580;28;20442;-83
2023/09/12 06:30:24;;;;;;;24.57;16.63;;;;;;;23.32;62.11;100635.88;5027022;28;20418;-84
2023/09/12 06:32:54;;;;;;;18.43;16.13;;;;;;;23.34;60.49;100636.38;5012766;28;20431;-83
2023/09/12 06:35:24;;;;;;;19.77;17.57;;;;;;;23.43;59.67;100631.06;5005721;28;20432;-84
2023/09/12 06:37:56;;;;;;;26.57;16.80;;;;;;;23.50;60.07;100645.38;5002983;28;20420;-86
2023/09/12 06:40:28;;;;;;;23.87;16.67;;;;;;;23.54;60.08;100636.19;4990482;28;20428;-84
2023/09/12 06:42:58;;;;;;;19.03;16.73;;;;;;;23.70;58.87;100642.34;4994420;28;20470;-84
2023/09/12 06:45:30;;;;;;;21.80;15.67;;;;;;;23.77;58.15;100654.69;4996513;28;20464;-84
2023/09/12 06:47:59;;;;;;;21.30;14.97;;;;;;;23.78;57.98;100649.97;4998603;28;20540;-84
2023/09/12 06:50:29;;;;;;;17.57;15.87;;;;;;;23.84;58.12;100648.81;4995581;28;20575;-84
2023/09/12 06:53:03;;;;;;;18.67;13.07;;;;;;;23.96;56.21;100668.56;5001570;28;20456;-83
2023/09/12 06:55:32;;;;;;;15.17;13.63;;;;;;;23.98;56.73;100674.59;4993884;28;20452;-83
2023/09/12 06:58:05;;;;;;;18.90;15.30;;;;;;;23.99;56.89;100661.59;5004771;28;20504;-84
2023/09/12 07:00:36;;;;;;;18.30;13.87;;;;;;;24.07;56.53;100669.22;5000795;28;20793;-83
2023/09/12 07:03:06;;;;;;;18.70;12.50;;;;;;;23.96;55.93;100667.75;4984123;28;20453;-83
2023/09/12 07:05:38;;;;;;;17.90;13.10;;;;;;;23.94;56.30;100659.72;5002628;28;20455;-84
2023/09/12 07:08:08;;;;;;;16.73;13.33;;;;;;;24.04;56.56;100658.78;5015143;28;20444;-83
2023/09/12 07:10:37;;;;;;;20.77;12.90;;;;;;;24.19;55.39;100677.94;5010572;28;20436;-84
2023/09/12 07:13:07;;;;;;;16.27;12.17;;;;;;;24.13;56.25;100673.56;5019796;28;20670;-84
2023/09/12 07:15:39;;;;;;;14.77;13.27;;;;;;;24.15;56.65;100665.81;5013465;28;20762;-83
2023/09/12 07:18:10;;;;;;;15.10;13.60;;;;;;;24.36;56.56;100683.78;4998268;28;20991;-84
2023/09/12 07:20:40;;;;;;;23.10;14.63;;;;;;;24.32;56.43;100677.19;5007216;28;20480;-84
2023/09/12 07:23:09;;;;;;;21.97;15.33;;;;;;;24.38;55.16;100680.72;4999247;28;20434;-84
2023/09/12 07:25:41;;;;;;;15.50;13.90;;;;;;;24.51;55.25;100666.94;4999976;28;20496;-83
2023/09/12 07:28:10;;;;;;;17.73;12.80;;;;;;;24.55;54.87;100664.41;5001299;28;20445;-83
2023/09/12 07:30:42;;;;;;;15.70;13.17;;;;;;;24.62;55.34;100665.69;5010740;28;20430;-84
2023/09/12 07:33:13;;;;;;;13.73;12.40;;;;;;;24.76;53.98;100662.97;5006748;28;20455;-84
2023/09/12 07:35:49;;;;;;;16.10;12.90;;;;;;;24.84;54.15;100658.66;5017026;28;20437;-83
2023/09/12 07:38:23;;;;;;;17.60;14.30;;;;;;;25.05;54.12;100651.69;5013611;28;20438;-84
2023/09/12 07:41:00;;;;;;;25.93;13.67;;;;;;;25.20;54.25;100645.88;5011033;28;20449;-84
2023/09/12 07:43:38;;;;;;;19.57;13.90;;;;;;;25.38;53.03;100650.50;5017834;28;20433;-83
2023/09/12 07:46:13;;;;;;;17.97;12.97;;;;;;;25.42;53.37;100651.53;5017379;28;20468;-84
2023/09/12 07:48:43;;;;;;;21.93;14.70;;;;;;;25.39;53.42;100652.16;5033157;28;20457;-86
2023/09/12 07:51:17;;;;;;;18.27;12.70;;;;;;;25.53;53.11;100661.31;5011372;28;20449;-84
2023/09/12 07:53:47;;;;;;;21.40;12.33;;;;;;;25.66;53.17;100656.13;5010647;28;20433;-84
2023/09/12 07:56:17;;;;;;;17.13;13.50;;;;;;;25.76;52.63;100656.69;5014277;28;20465;-84
2023/09/12 07:58:47;;;;;;;21.23;14.00;;;;;;;25.93;52.84;100653.31;5005288;28;20551;-84
2023/09/12 08:01:18;;;;;;;24.20;16.53;;;;;;;25.97;52.53;100662.66;5006154;28;20467;-83
2023/09/12 08:03:47;;;;;;;15.77;13.93;;;;;;;26.06;52.04;100660.78;4999495;28;20476;-83
2023/09/12 08:06:17;;;;;;;14.03;11.30;;;;;;;25.89;52.51;100660.63;5006398;28;20452;-83
2023/09/12 08:08:47;;;;;;;16.00;13.30;;;;;;;26.07;51.97;100662.44;5011275;28;20473;-83
2023/09/12 08:11:50;;;;;;;19.53;12.00;;;;;;;25.99;51.94;100663.16;5000344;28;20460;-83
2023/09/12 08:14:21;;;;;;;16.73;12.50;;;;;;;26.10;52.24;100656.25;5004976;28;20450;-84
2023/09/12 08:16:53;;;;;;;16.17;14.47;;;;;;;26.26;51.85;100659.53;4999274;28;20541;-84
2023/09/12 08:19:23;;;;;;;23.67;12.90;;;;;;;26.42;51.07;100660.00;4999375;28;20485;-84
2023/09/12 08:21:53;;;;;;;18.27;12.40;;;;;;;26.30;50.86;100668.88;5000888;28;20608;-85
2023/09/12 08:24:22;;;;;;;17.13;11.60;;;;;;;26.40;50.78;100665.88;5010158;28;20775;-84
2023/09/12 08:26:53;;;;;;;18.30;12.00;;;;;;;26.56;50.14;100664.38;5009227;28;20453;-84
2023/09/12 08:29:22;;;;;;;17.00;12.60;;;;;;;26.65;49.91;100664.44;5017528;28;20613;-85
2023/09/12 08:31:53;;;;;;;17.80;11.50;;;;;;;26.69;49.79;100660.72;5016822;28;20420;-84
2023/09/12 08:34:23;;;;;;;17.20;10.77;;;;;;;26.67;49.78;100662.19;5011863;28;20450;-85
2023/09/12 08:36:54;;;;;;;17.70;12.00;;;;;;;26.82;49.39;100667.31;5014122;28;20515;-85
2023/09/12 08:39:26;;;;;;;15.60;12.50;;;;;;;27.02;49.01;100660.47;5014620;28;20519;-83
2023/09/12 08:41:56;;;;;;;13.37;10.50;;;;;;;27.07;49.21;100666.72;5014405;28;20465;-85
2023/09/12 08:44:27;;;;;;;16.60;11.43;;;;;;;27.24;49.07;100675.16;5009786;28;20411;-84
2023/09/12 08:47:00;;;;;;;13.67;9.70;;;;;;;27.27;48.33;100664.53;5017171;28;20453;-84
2023/09/12 08:49:31;;;;;;;15.53;11.50;;;;;;;27.63;47.49;100670.78;5017999;28;20425;-84
2023/09/12 08:52:00;;;;;;;17.93;11.30;;;;;;;27.55;47.35;100677.94;5011515;28;20583;-85
2023/09/12 08:54:33;;;;;;;14.93;10.80;;;;;;;27.47;47.53;100677.88;5010421;28;20417;-85
2023/09/12 08:59:56;;;;;;;17.17;10.60;;;;;;;27.34;47.82;100685.19;5014415;28;20470;-83
2023/09/12 09:02:33;;;;;;;13.97;9.27;;;;;;;27.45;47.78;100678.19;5013931;28;20430;-84
2023/09/12 09:05:25;;;;;;;17.77;10.47;;;;;;;27.51;48.39;100679.72;5013328;28;20429;-85
2023/09/12 09:08:01;;;;;;;13.83;10.13;;;;;;;27.41;48.07;100685.53;5016462;28;20595;-83
2023/09/12 09:10:34;;;;;;;15.47;11.83;;;;;;;27.48;48.35;100690.63;5005671;28;20440;-83
2023/09/12 09:13:31;;;;;;;19.37;11.30;;;;;;;27.39;49.13;100698.13;5009998;28;20454;-83
2023/09/12 09:16:15;;;;;;;18.07;13.40;;;;;;;27.63;49.01;100704.97;5013858;28;20545;-82
2023/09/12 09:19:05;;;;;;;21.50;13.50;;;;;;;27.90;48.76;100701.13;5008192;28;20472;-84
2023/09/12 09:21:41;;;;;;;19.10;12.60;;;;;;;27.95;48.75;100706.53;5004482;28;20446;-84
2023/09/12 09:24:12;;;;;;;17.60;11.87;;;;;;;28.01;48.89;100701.66;4999578;28;20458;-83
2023/09/12 09:26:44;;;;;;;13.00;11.70;;;;;;;27.61;50.38;100714.75;5002536;28;20877;-83
2023/09/12 09:29:18;;;;;;;22.50;12.50;;;;;;;27.24;51.96;100714.06;4992201;28;20518;-85
2023/09/12 09:31:52;;;;;;;21.70;11.83;;;;;;;27.12;52.62;100722.13;5003616;28;20436;-84
2023/09/12 09:34:27;;;;;;;21.50;12.63;;;;;;;26.88;53.51;100720.81;5000520;28;20435;-85
2023/09/12 09:36:58;;;;;;;19.03;12.70;;;;;;;26.86;54.22;100723.91;5002488;28;20469;-84
2023/09/12 09:39:29;;;;;;;17.80;12.77;;;;;;;26.81;54.50;100715.69;5004885;28;20446;-85
2023/09/12 09:42:00;;;;;;;20.37;12.80;;;;;;;26.95;54.77;100716.47;5006734;28;20477;-85
2023/09/12 09:44:33;;;;;;;13.70;11.97;;;;;;;27.36;54.01;100718.19;5000342;28;20435;-84
2023/09/12 09:47:03;;;;;;;14.83;13.03;;;;;;;27.60;53.22;100710.31;4993055;28;20466;-84
2023/09/12 09:49:37;;;;;;;17.07;13.87;;;;;;;27.62;53.47;100713.63;5001347;28;20447;-85
2023/09/12 09:52:07;;;;;;;22.53;17.63;;;;;;;27.77;53.31;100715.16;4999191;28;20459;-84
2023/09/12 09:54:36;;;;;;;19.30;15.40;;;;;;;27.53;53.44;100710.00;5002281;28;20422;-84
2023/09/12 09:57:06;;;;;;;16.60;14.83;;;;;;;27.46;53.54;100710.41;4998480;28;20497;-85
2023/09/12 09:59:36;;;;;;;19.37;17.47;;;;;;;27.50;53.98;100710.59;4997574;28;20974;-84
2023/09/12 10:02:18;;;;;;;22.43;15.40;;;;;;;27.59;53.80;100714.28;4998261;28;20469;-85
2023/09/12 10:04:51;;;;;;;21.07;15.23;;;;;;;27.56;53.08;100704.59;4998624;28;20446;-84
2023/09/12 10:07:34;;;;;;;21.13;13.90;;;;;;;27.69;52.04;100713.16;5000575;28;20465;-84
2023/09/12 10:10:12;;;;;;;20.53;12.83;;;;;;;27.41;52.20;100706.94;5001232;28;20468;-84
2023/09/12 10:12:50;;;;;;;30.87;14.37;;;;;;;27.51;52.19;100701.13;5000431;28;21027;-83
2023/09/12 10:15:22;;;;;;;21.17;13.40;;;;;;;27.54;52.24;100692.19;5003351;28;20441;-84
2023/09/12 10:17:58;;;;;;;14.67;12.63;;;;;;;27.80;51.27;100681.97;4993230;28;20466;-84
2023/09/12 10:20:51;;;;;;;21.33;13.63;;;;;;;27.70;51.93;100692.53;5000791;28;20496;-84
2023/09/12 10:23:41;;;;;;;23.43;14.23;;;;;;;27.60;52.36;100683.34;4994409;28;20510;-83
2023/09/12 10:26:14;;;;;;;20.57;13.60;;;;;;;27.85;51.95;100679.03;4997397;28;20464;-84
2023/09/12 10:29:10;;;;;;;16.20;12.50;;;;;;;28.20;50.60;100673.56;4998930;28;20458;-84
2023/09/12 10:32:30;;;;;;;17.33;13.33;;;;;;;28.13;51.11;100667.69;4997614;28;20442;-84
2023/09/12 10:35:45;;;;;;;19.67;13.57;;;;;;;27.99;51.51;100663.03;4989423;28;20481;-84
2023/09/12 10:38:19;;;;;;;18.03;13.47;;;;;;;28.11;51.38;100665.22;5010037;28;20452;-83
2023/09/12 10:41:28;;;;;;;17.73;12.87;;;;;;;28.24;51.41;100664.25;5002620;28;20478;-84
2023/09/12 10:44:22;;;;;;;19.23;14.10;;;;;;;28.37;51.33;100663.28;5010590;28;20448;-83
2023/09/12 10:46:56;;;;;;;18.40;14.23;;;;;;;28.71;49.96;100661.66;5005322;28;20474;-81
2023/09/12 10:52:30;;;;;;;20.53;12.60;;;;;;;28.65;49.40;100661.00;4991979;28;20962;-83
2023/09/12 10:55:05;;;;;;;27.57;14.03;;;;;;;28.57;49.87;100664.59;5014550;28;20537;-82
2023/09/12 10:57:35;;;;;;;23.57;13.60;;;;;;;28.66;50.16;100670.97;5001261;28;20517;-83
2023/09/12 11:00:13;;;;;;;18.00;12.80;;;;;;;28.53;50.25;100666.41;5018618;28;20509;-83
2023/09/12 11:02:43;;;;;;;15.13;12.60;;;;;;;28.47;50.50;100667.69;5011829;28;20441;-82
2023/09/12 11:05:47;;;;;;;18.23;13.17;;;;;;;28.67;49.76;100671.78;5009978;28;20442;-84
2023/09/12 11:08:16;;;;;;;16.87;13.00;;;;;;;28.81;48.97;100664.94;5004694;28;20453;-84
2023/09/12 11:11:21;;;;;;;15.27;12.13;;;;;;;28.85;49.26;100654.75;4993981;28;20426;-83
2023/09/12 11:14:04;;;;;;;19.40;9.87;;;;;;;28.94;48.94;100666.72;5000242;28;20453;-84
2023/09/12 11:16:35;;;;;;;11.67;10.67;;;;;;;28.90;48.36;100657.38;5005550;28;20492;-83
2023/09/12 11:19:18;;;;;;;15.60;11.40;;;;;;;28.97;48.17;100658.84;5008306;28;20422;-84
2023/09/12 11:21:51;;;;;;;12.20;11.00;;;;;;;28.89;47.96;100664.13;5007408;28;20490;-83
2023/09/12 11:24:21;;;;;;;15.70;11.30;;;;;;;28.77;48.20;100666.75;5000427;28;20452;-84
2023/09/12 11:26:57;;;;;;;16.70;12.03;;;;;;;28.56;48.79;100660.19;5000894;28;20494;-84
2023/09/12 11:29:30;;;;;;;10.60;9.07;;;;;;;28.86;47.89;100653.63;4998232;28;20449;-84
2023/09/12 11:32:02;;;;;;;10.90;10.00;;;;;;;28.81;48.12;100651.00;5004850;28;20436;-83
2023/09/12 11:34:38;;;;;;;10.83;9.70;;;;;;;29.12;47.74;100672.25;5003311;28;20517;-83
2023/09/12 11:37:08;;;;;;;15.50;8.90;;;;;;;28.77;47.70;100666.75;4999394;28;20468;-84
2023/09/12 11:39:40;;;;;;;11.47;10.07;;;;;;;28.87;47.61;100658.03;4999697;28;20533;-85
2023/09/12 11:42:13;;;;;;;12.17;9.67;;;;;;;28.99;47.91;100662.13;4998290;28;20467;-83
2023/09/12 11:44:45;;;;;;;16.13;9.70;;;;;;;29.13;47.19;100658.00;5003163;28;20953;-82
2023/09/12 11:47:14;;;;;;;11.50;10.30;;;;;;;29.34;46.68;100660.88;5008815;28;20500;-82
2023/09/12 11:49:44;;;;;;;14.13;10.03;;;;;;;29.31;46.85;100661.56;5013667;28;20441;-81
2023/09/12 11:52:16;;;;;;;18.20;9.43;;;;;;;29.25;46.88;100654.50;5013910;28;20445;-82
2023/09/12 11:54:46;;;;;;;11.00;10.00;;;;;;;29.16;47.00;100651.75;5006657;28;20470;-81